sensor_id;sensor_type;location;lat;lon;timestamp;pressure;altitude;pressure_sealevel;temperature;humidity
70728;BME280;58314;47.722;17.652;2022-10-16T00:00:39;100756.69;;;11.48;100.00
70728;BME280;58314;47.722;17.652;2022-10-16T00:03:41;100767.81;;;11.36;100.00
70728;BME280;58314;47.722;17.652;2022-10-16T00:06:42;100770.06;;;11.24;100.00
70728;BME280;58314;47.722;17.652;2022-10-16T00:09:43;100771.44;;;11.12;100.00
70728;BME280;58314;47.722;17.652;2022-10-16T00:12:44;100770.28;;;11.20;100.00
70728;BME280;58314;47.722;17.652;2022-10-16T00:15:44;100775.41;;;11.23;100.00
70728;BME280;58314;47.722;17.652;2022-10-16T00:18:45;100774.56;;;11.22;100.00
70728;BME280;58314;47.722;17.652;2022-10-16T00:21:46;100771.31;;;11.16;100.00
70728;BME280;58314;47.722;17.652;2022-10-16T00:24:46;100774.09;;;11.12;100.00
70728;BME280;58314;47.722;17.652;2022-10-16T00:27:47;100779.78;;;11.03;100.00
70728;BME280;58314;47.722;17.652;2022-10-16T00:30:48;100779.66;;;11.06;100.00
70728;BME280;58314;47.722;17.652;2022-10-16T00:33:49;100781.94;;;10.93;100.00
70728;BME280;58314;47.722;17.652;2022-10-16T00:36:50;100788.06;;;10.96;100.00
70728;BME280;58314;47.722;17.652;2022-10-16T00:39:50;100782.09;;;10.90;100.00
70728;BME280;58314;47.722;17.652;2022-10-16T00:42:51;100781.31;;;10.88;100.00
70728;BME280;58314;47.722;17.652;2022-10-16T00:45:51;100775.38;;;10.82;100.00
70728;BME280;58314;47.722;17.652;2022-10-16T00:49:00;100781.78;;;10.76;100.00
70728;BME280;58314;47.722;17.652;2022-10-16T00:52:02;100782.16;;;10.67;100.00
70728;BME280;58314;47.722;17.652;2022-10-16T00:55:03;100771.16;;;10.55;100.00
70728;BME280;58314;47.722;17.652;2022-10-16T00:58:05;100781.97;;;10.49;100.00
70728;BME280;58314;47.722;17.652;2022-10-16T01:01:06;100787.03;;;10.55;100.00
70728;BME280;58314;47.722;17.652;2022-10-16T01:04:06;100787.72;;;10.61;100.00
70728;BME280;58314;47.722;17.652;2022-10-16T01:10:38;100786.88;;;10.59;100.00
70728;BME280;58314;47.722;17.652;2022-10-16T01:13:42;100791.34;;;10.58;100.00
70728;BME280;58314;47.722;17.652;2022-10-16T01:16:59;100797.53;;;10.57;100.00
70728;BME280;58314;47.722;17.652;2022-10-16T01:20:10;100802.09;;;10.53;100.00
70728;BME280;58314;47.722;17.652;2022-10-16T01:23:43;100805.00;;;10.47;100.00
70728;BME280;58314;47.722;17.652;2022-10-16T01:30:12;100811.06;;;10.26;100.00
70728;BME280;58314;47.722;17.652;2022-10-16T01:33:19;100824.28;;;10.26;100.00
70728;BME280;58314;47.722;17.652;2022-10-16T01:36:26;100825.91;;;10.31;100.00
70728;BME280;58314;47.722;17.652;2022-10-16T01:39:32;100820.00;;;10.23;100.00
70728;BME280;58314;47.722;17.652;2022-10-16T01:42:42;100825.38;;;10.20;100.00
70728;BME280;58314;47.722;17.652;2022-10-16T01:45:45;100812.47;;;10.12;100.00
70728;BME280;58314;47.722;17.652;2022-10-16T01:48:48;100817.88;;;10.09;100.00
70728;BME280;58314;47.722;17.652;2022-10-16T01:51:52;100813.69;;;10.04;100.00
70728;BME280;58314;47.722;17.652;2022-10-16T01:54:56;100824.41;;;9.99;100.00
70728;BME280;58314;47.722;17.652;2022-10-16T01:57:59;100812.00;;;10.01;100.00
70728;BME280;58314;47.722;17.652;2022-10-16T02:01:02;100814.00;;;9.94;100.00
70728;BME280;58314;47.722;17.652;2022-10-16T02:04:12;100815.09;;;9.89;100.00
70728;BME280;58314;47.722;17.652;2022-10-16T02:07:15;100821.03;;;9.95;100.00
70728;BME280;58314;47.722;17.652;2022-10-16T02:10:17;100821.78;;;9.99;100.00
70728;BME280;58314;47.722;17.652;2022-10-16T02:13:35;100824.31;;;10.02;100.00
70728;BME280;58314;47.722;17.652;2022-10-16T02:16:43;100826.84;;;10.05;100.00
70728;BME280;58314;47.722;17.652;2022-10-16T02:19:47;100831.69;;;10.17;100.00
70728;BME280;58314;47.722;17.652;2022-10-16T02:22:49;100829.41;;;10.30;100.00
70728;BME280;58314;47.722;17.652;2022-10-16T02:25:52;100826.56;;;10.36;100.00
70728;BME280;58314;47.722;17.652;2022-10-16T02:28:59;100833.53;;;10.39;100.00
70728;BME280;58314;47.722;17.652;2022-10-16T02:32:03;100835.06;;;10.45;100.00
70728;BME280;58314;47.722;17.652;2022-10-16T02:35:06;100842.09;;;10.46;100.00
70728;BME280;58314;47.722;17.652;2022-10-16T02:38:09;100841.22;;;10.45;100.00
70728;BME280;58314;47.722;17.652;2022-10-16T02:41:10;100836.69;;;10.49;100.00
70728;BME280;58314;47.722;17.652;2022-10-16T02:44:10;100842.81;;;10.49;100.00
70728;BME280;58314;47.722;17.652;2022-10-16T02:47:11;100848.91;;;10.51;100.00
70728;BME280;58314;47.722;17.652;2022-10-16T02:50:13;100843.56;;;10.53;100.00
70728;BME280;58314;47.722;17.652;2022-10-16T02:53:13;100846.09;;;10.56;100.00
70728;BME280;58314;47.722;17.652;2022-10-16T02:56:14;100845.25;;;10.55;100.00
70728;BME280;58314;47.722;17.652;2022-10-16T02:59:15;100849.59;;;10.57;100.00
70728;BME280;58314;47.722;17.652;2022-10-16T03:02:16;100856.63;;;10.58;100.00
70728;BME280;58314;47.722;17.652;2022-10-16T03:05:17;100847.81;;;10.57;100.00
70728;BME280;58314;47.722;17.652;2022-10-16T03:08:18;100847.91;;;10.55;100.00
70728;BME280;58314;47.722;17.652;2022-10-16T03:11:23;100840.88;;;10.54;100.00
70728;BME280;58314;47.722;17.652;2022-10-16T03:14:24;100847.06;;;10.53;100.00
70728;BME280;58314;47.722;17.652;2022-10-16T03:17:25;100848.75;;;10.56;100.00
70728;BME280;58314;47.722;17.652;2022-10-16T03:20:26;100847.91;;;10.55;100.00
70728;BME280;58314;47.722;17.652;2022-10-16T03:23:26;100850.44;;;10.57;100.00
70728;BME280;58314;47.722;17.652;2022-10-16T03:26:27;100850.44;;;10.57;100.00
70728;BME280;58314;47.722;17.652;2022-10-16T03:29:28;100850.72;;;10.51;100.00
70728;BME280;58314;47.722;17.652;2022-10-16T03:32:30;100857.84;;;10.49;100.00
70728;BME280;58314;47.722;17.652;2022-10-16T03:35:31;100854.41;;;10.47;100.00
70728;BME280;58314;47.722;17.652;2022-10-16T03:38:32;100850.19;;;10.41;100.00
70728;BME280;58314;47.722;17.652;2022-10-16T03:41:33;100854.69;;;10.39;100.00
70728;BME280;58314;47.722;17.652;2022-10-16T03:44:33;100866.31;;;10.35;100.00
70728;BME280;58314;47.722;17.652;2022-10-16T03:47:34;100861.03;;;10.35;100.00
70728;BME280;58314;47.722;17.652;2022-10-16T03:50:35;100862.88;;;10.33;100.00
70728;BME280;58314;47.722;17.652;2022-10-16T03:53:35;100849.56;;;10.34;100.00
70728;BME280;58314;47.722;17.652;2022-10-16T03:56:36;100847.84;;;10.33;100.00
70728;BME280;58314;47.722;17.652;2022-10-16T03:59:37;100859.91;;;10.41;100.00
70728;BME280;58314;47.722;17.652;2022-10-16T04:02:37;100874.78;;;10.43;100.00
70728;BME280;58314;47.722;17.652;2022-10-16T04:05:38;100876.53;;;10.44;100.00
70728;BME280;58314;47.722;17.652;2022-10-16T04:08:42;100883.66;;;10.42;100.00
70728;BME280;58314;47.722;17.652;2022-10-16T04:11:43;100881.97;;;10.40;100.00
70728;BME280;58314;47.722;17.652;2022-10-16T04:14:44;100879.28;;;10.41;100.00
70728;BME280;58314;47.722;17.652;2022-10-16T04:17:44;100874.00;;;10.41;100.00
70728;BME280;58314;47.722;17.652;2022-10-16T04:20:45;100886.47;;;10.38;100.00
70728;BME280;58314;47.722;17.652;2022-10-16T04:23:46;100887.47;;;10.35;100.00
70728;BME280;58314;47.722;17.652;2022-10-16T04:26:47;100884.81;;;10.35;100.00
70728;BME280;58314;47.722;17.652;2022-10-16T04:29:47;100895.47;;;10.33;100.00
70728;BME280;58314;47.722;17.652;2022-10-16T04:32:49;100900.69;;;10.35;100.00
70728;BME280;58314;47.722;17.652;2022-10-16T04:36:00;100901.66;;;10.32;100.00
70728;BME280;58314;47.722;17.652;2022-10-16T04:39:01;100900.97;;;10.26;100.00
70728;BME280;58314;47.722;17.652;2022-10-16T04:42:02;100899.09;;;10.29;100.00
70728;BME280;58314;47.722;17.652;2022-10-16T04:45:04;100893.78;;;10.29;100.00
70728;BME280;58314;47.722;17.652;2022-10-16T04:48:05;100901.91;;;10.25;100.00
70728;BME280;58314;47.722;17.652;2022-10-16T04:51:06;100912.59;;;10.22;100.00
70728;BME280;58314;47.722;17.652;2022-10-16T04:54:06;100917.19;;;10.16;100.00
70728;BME280;58314;47.722;17.652;2022-10-16T04:57:07;100923.56;;;10.11;100.00
70728;BME280;58314;47.722;17.652;2022-10-16T05:00:08;100929.03;;;10.06;100.00
70728;BME280;58314;47.722;17.652;2022-10-16T05:03:09;100924.81;;;10.01;100.00
70728;BME280;58314;47.722;17.652;2022-10-16T05:06:09;100914.44;;;9.94;100.00
70728;BME280;58314;47.722;17.652;2022-10-16T05:09:10;100917.13;;;9.93;100.00
70728;BME280;58314;47.722;17.652;2022-10-16T05:12:11;100913.69;;;9.91;100.00
70728;BME280;58314;47.722;17.652;2022-10-16T05:15:11;100916.47;;;9.88;100.00
70728;BME280;58314;47.722;17.652;2022-10-16T05:18:12;100919.78;;;9.93;100.00
70728;BME280;58314;47.722;17.652;2022-10-16T05:21:13;100931.28;;;9.92;100.00
70728;BME280;58314;47.722;17.652;2022-10-16T05:24:14;100925.78;;;9.98;100.00
70728;BME280;58314;47.722;17.652;2022-10-16T05:27:14;100930.31;;;9.94;100.00
70728;BME280;58314;47.722;17.652;2022-10-16T05:30:19;100933.84;;;9.95;100.00
70728;BME280;58314;47.722;17.652;2022-10-16T05:33:21;100937.06;;;10.03;100.00
70728;BME280;58314;47.722;17.652;2022-10-16T05:36:23;100935.16;;;10.07;100.00
70728;BME280;58314;47.722;17.652;2022-10-16T05:39:24;100944.53;;;10.15;100.00
70728;BME280;58314;47.722;17.652;2022-10-16T05:42:24;100944.53;;;10.15;100.00
70728;BME280;58314;47.722;17.652;2022-10-16T05:45:25;100948.03;;;10.17;100.00
70728;BME280;58314;47.722;17.652;2022-10-16T05:48:26;100954.13;;;10.20;100.00
70728;BME280;58314;47.722;17.652;2022-10-16T05:51:27;100949.41;;;10.28;100.00
70728;BME280;58314;47.722;17.652;2022-10-16T05:54:27;100945.75;;;10.32;100.00
70728;BME280;58314;47.722;17.652;2022-10-16T05:57:28;100951.75;;;10.37;100.00
70728;BME280;58314;47.722;17.652;2022-10-16T06:00:29;100956.13;;;10.38;100.00
70728;BME280;58314;47.722;17.652;2022-10-16T06:03:29;100966.41;;;10.46;100.00
70728;BME280;58314;47.722;17.652;2022-10-16T06:06:30;100967.16;;;10.49;100.00
70728;BME280;58314;47.722;17.652;2022-10-16T06:09:31;100973.97;;;10.57;100.00
70728;BME280;58314;47.722;17.652;2022-10-16T06:12:32;100974.59;;;10.63;100.00
70728;BME280;58314;47.722;17.652;2022-10-16T06:15:32;100980.63;;;10.67;100.00
70728;BME280;58314;47.722;17.652;2022-10-16T06:18:33;100981.22;;;10.75;100.00
70728;BME280;58314;47.722;17.652;2022-10-16T06:21:34;100978.53;;;10.77;100.00
70728;BME280;58314;47.722;17.652;2022-10-16T06:24:35;100978.28;;;10.83;100.00
70728;BME280;58314;47.722;17.652;2022-10-16T06:27:35;100983.22;;;10.92;100.00
70728;BME280;58314;47.722;17.652;2022-10-16T06:30:38;100994.38;;;11.00;100.00
70728;BME280;58314;47.722;17.652;2022-10-16T06:33:39;100998.50;;;11.07;100.00
70728;BME280;58314;47.722;17.652;2022-10-16T06:36:40;100991.06;;;11.17;100.00
70728;BME280;58314;47.722;17.652;2022-10-16T06:39:41;101008.22;;;11.30;100.00
70728;BME280;58314;47.722;17.652;2022-10-16T06:42:42;101013.25;;;11.37;100.00
70728;BME280;58314;47.722;17.652;2022-10-16T06:45:42;101011.28;;;11.42;100.00
70728;BME280;58314;47.722;17.652;2022-10-16T06:48:43;101016.09;;;11.54;100.00
70728;BME280;58314;47.722;17.652;2022-10-16T06:51:43;101027.31;;;11.61;100.00
70728;BME280;58314;47.722;17.652;2022-10-16T06:54:44;101031.59;;;11.65;100.00
70728;BME280;58314;47.722;17.652;2022-10-16T06:57:46;101030.19;;;11.77;100.00
70728;BME280;58314;47.722;17.652;2022-10-16T07:00:47;101042.22;;;11.85;100.00
70728;BME280;58314;47.722;17.652;2022-10-16T07:03:48;101041.09;;;11.93;100.00
70728;BME280;58314;47.722;17.652;2022-10-16T07:06:49;101046.72;;;12.05;100.00
70728;BME280;58314;47.722;17.652;2022-10-16T07:09:52;101052.44;;;12.17;100.00
70728;BME280;58314;47.722;17.652;2022-10-16T07:12:53;101057.50;;;12.23;100.00
70728;BME280;58314;47.722;17.652;2022-10-16T07:15:53;101047.34;;;12.33;100.00
70728;BME280;58314;47.722;17.652;2022-10-16T07:18:56;101044.81;;;12.50;100.00
70728;BME280;58314;47.722;17.652;2022-10-16T07:21:59;101047.84;;;12.61;100.00
70728;BME280;58314;47.722;17.652;2022-10-16T07:24:59;101044.66;;;12.74;100.00
70728;BME280;58314;47.722;17.652;2022-10-16T07:28:00;101058.38;;;12.84;100.00
70728;BME280;58314;47.722;17.652;2022-10-16T07:31:09;101069.53;;;12.92;100.00
70728;BME280;58314;47.722;17.652;2022-10-16T07:34:13;101075.91;;;13.07;100.00
70728;BME280;58314;47.722;17.652;2022-10-16T07:37:14;101080.25;;;13.09;100.00
70728;BME280;58314;47.722;17.652;2022-10-16T07:40:15;101078.59;;;13.26;100.00
70728;BME280;58314;47.722;17.652;2022-10-16T07:43:16;101078.81;;;13.40;100.00
70728;BME280;58314;47.722;17.652;2022-10-16T07:46:17;101080.63;;;13.40;100.00
70728;BME280;58314;47.722;17.652;2022-10-16T07:49:20;101101.03;;;13.39;100.00
70728;BME280;58314;47.722;17.652;2022-10-16T07:52:21;101093.34;;;13.52;100.00
70728;BME280;58314;47.722;17.652;2022-10-16T07:55:22;101096.38;;;13.63;100.00
70728;BME280;58314;47.722;17.652;2022-10-16T07:58:22;101110.16;;;13.71;100.00
70728;BME280;58314;47.722;17.652;2022-10-16T08:01:23;101104.78;;;13.90;100.00
70728;BME280;58314;47.722;17.652;2022-10-16T08:04:24;101107.50;;;14.08;99.24
70728;BME280;58314;47.722;17.652;2022-10-16T08:07:24;101118.47;;;14.19;99.25
70728;BME280;58314;47.722;17.652;2022-10-16T08:10:27;101115.09;;;14.33;98.68
70728;BME280;58314;47.722;17.652;2022-10-16T08:13:28;101119.88;;;14.44;96.74
70728;BME280;58314;47.722;17.652;2022-10-16T08:16:28;101123.38;;;14.63;95.27
70728;BME280;58314;47.722;17.652;2022-10-16T08:19:29;101114.75;;;14.76;95.27
70728;BME280;58314;47.722;17.652;2022-10-16T08:22:32;101106.66;;;14.95;93.82
70728;BME280;58314;47.722;17.652;2022-10-16T08:25:35;101107.69;;;15.08;94.24
70728;BME280;58314;47.722;17.652;2022-10-16T08:28:37;101110.66;;;15.19;93.21
70728;BME280;58314;47.722;17.652;2022-10-16T08:31:38;101114.09;;;15.37;92.07
70728;BME280;58314;47.722;17.652;2022-10-16T08:34:38;101111.53;;;15.52;90.64
70728;BME280;58314;47.722;17.652;2022-10-16T08:37:39;101112.13;;;15.57;89.53
70728;BME280;58314;47.722;17.652;2022-10-16T08:40:42;101118.00;;;15.79;90.78
70728;BME280;58314;47.722;17.652;2022-10-16T08:50:28;101129.19;;;16.18;88.31
70728;BME280;58314;47.722;17.652;2022-10-16T08:53:55;101131.66;;;16.37;87.62
70728;BME280;58314;47.722;17.652;2022-10-16T08:57:04;101126.84;;;16.58;87.09
70728;BME280;58314;47.722;17.652;2022-10-16T09:00:14;101127.59;;;16.60;85.40
70728;BME280;58314;47.722;17.652;2022-10-16T09:06:46;101102.84;;;16.87;84.99
70728;BME280;58314;47.722;17.652;2022-10-16T09:13:48;101089.41;;;17.17;83.04
70728;BME280;58314;47.722;17.652;2022-10-16T09:16:58;101087.66;;;17.45;82.00
70728;BME280;58314;47.722;17.652;2022-10-16T09:20:24;101101.78;;;17.47;79.70
70728;BME280;58314;47.722;17.652;2022-10-16T09:23:29;101102.84;;;17.72;79.66
70728;BME280;58314;47.722;17.652;2022-10-16T09:26:30;101108.47;;;17.81;78.43
70728;BME280;58314;47.722;17.652;2022-10-16T09:29:31;101105.22;;;17.91;78.08
70728;BME280;58314;47.722;17.652;2022-10-16T09:32:32;101104.13;;;18.20;77.57
70728;BME280;58314;47.722;17.652;2022-10-16T09:35:43;101117.16;;;18.39;76.17
70728;BME280;58314;47.722;17.652;2022-10-16T09:38:44;101112.16;;;18.60;75.21
70728;BME280;58314;47.722;17.652;2022-10-16T09:41:45;101119.78;;;18.79;75.47
70728;BME280;58314;47.722;17.652;2022-10-16T09:44:50;101122.50;;;19.05;74.77
70728;BME280;58314;47.722;17.652;2022-10-16T09:47:52;101122.06;;;19.24;71.76
70728;BME280;58314;47.722;17.652;2022-10-16T09:51:02;101129.84;;;19.40;71.66
70728;BME280;58314;47.722;17.652;2022-10-16T09:54:15;101118.41;;;19.75;72.32
70728;BME280;58314;47.722;17.652;2022-10-16T09:57:16;101132.28;;;19.69;71.43
70728;BME280;58314;47.722;17.652;2022-10-16T10:00:17;101131.19;;;19.84;71.37
70728;BME280;58314;47.722;17.652;2022-10-16T10:03:37;101125.53;;;20.00;69.23
70728;BME280;58314;47.722;17.652;2022-10-16T10:06:45;101132.13;;;20.31;69.32
70728;BME280;58314;47.722;17.652;2022-10-16T10:09:47;101125.19;;;20.40;69.63
70728;BME280;58314;47.722;17.652;2022-10-16T10:12:47;101120.44;;;20.79;66.49
70728;BME280;58314;47.722;17.652;2022-10-16T10:15:48;101121.69;;;20.98;65.41
70728;BME280;58314;47.722;17.652;2022-10-16T10:18:58;101122.31;;;21.24;65.00
70728;BME280;58314;47.722;17.652;2022-10-16T10:21:58;101114.41;;;21.89;61.78
70728;BME280;58314;47.722;17.652;2022-10-16T10:31:36;101111.66;;;24.27;54.81
70728;BME280;58314;47.722;17.652;2022-10-16T10:38:39;101105.66;;;26.91;45.54
70728;BME280;58314;47.722;17.652;2022-10-16T10:45:14;101107.25;;;27.45;44.01
70728;BME280;58314;47.722;17.652;2022-10-16T10:58:16;101095.69;;;26.74;44.39
70728;BME280;58314;47.722;17.652;2022-10-16T11:01:44;101096.22;;;27.38;42.36
70728;BME280;58314;47.722;17.652;2022-10-16T11:05:16;101090.34;;;27.59;42.89
70728;BME280;58314;47.722;17.652;2022-10-16T11:08:31;101087.84;;;27.90;42.60
70728;BME280;58314;47.722;17.652;2022-10-16T11:11:46;101081.13;;;28.11;41.24
70728;BME280;58314;47.722;17.652;2022-10-16T11:21:10;101062.56;;;28.47;40.28
70728;BME280;58314;47.722;17.652;2022-10-16T11:24:20;101059.38;;;27.43;42.35
70728;BME280;58314;47.722;17.652;2022-10-16T11:27:33;101055.22;;;27.82;41.69
70728;BME280;58314;47.722;17.652;2022-10-16T11:30:49;101065.28;;;27.98;41.11
70728;BME280;58314;47.722;17.652;2022-10-16T11:36:57;101057.22;;;27.72;41.81
70728;BME280;58314;47.722;17.652;2022-10-16T11:40:16;101056.38;;;27.71;41.77
70728;BME280;58314;47.722;17.652;2022-10-16T11:43:29;101056.06;;;27.74;42.42
70728;BME280;58314;47.722;17.652;2022-10-16T11:46:35;101054.97;;;29.70;38.67
70728;BME280;58314;47.722;17.652;2022-10-16T11:49:38;101061.34;;;29.31;39.00
70728;BME280;58314;47.722;17.652;2022-10-16T11:52:46;101053.25;;;29.68;38.14
70728;BME280;58314;47.722;17.652;2022-10-16T11:55:48;101050.22;;;29.32;38.74
70728;BME280;58314;47.722;17.652;2022-10-16T11:59:06;101056.06;;;29.29;38.78
70728;BME280;58314;47.722;17.652;2022-10-16T12:09:30;101053.03;;;28.60;40.07
70728;BME280;58314;47.722;17.652;2022-10-16T12:15:35;101050.28;;;27.69;41.19
70728;BME280;58314;47.722;17.652;2022-10-16T12:18:36;101053.72;;;28.21;40.80
70728;BME280;58314;47.722;17.652;2022-10-16T12:21:36;101045.91;;;27.93;41.52
70728;BME280;58314;47.722;17.652;2022-10-16T12:24:42;101046.09;;;27.32;42.61
70728;BME280;58314;47.722;17.652;2022-10-16T12:27:43;101051.06;;;26.06;45.39
70728;BME280;58314;47.722;17.652;2022-10-16T12:30:52;101053.63;;;25.16;47.94
70728;BME280;58314;47.722;17.652;2022-10-16T12:34:02;101054.66;;;24.58;50.31
70728;BME280;58314;47.722;17.652;2022-10-16T12:37:25;101048.72;;;24.44;49.40
70728;BME280;58314;47.722;17.652;2022-10-16T12:40:30;101051.81;;;24.69;49.14
70728;BME280;58314;47.722;17.652;2022-10-16T12:43:45;101043.81;;;24.77;50.04
70728;BME280;58314;47.722;17.652;2022-10-16T12:46:46;101044.13;;;24.65;50.23
70728;BME280;58314;47.722;17.652;2022-10-16T12:49:53;101048.31;;;24.10;50.85
70728;BME280;58314;47.722;17.652;2022-10-16T12:52:57;101044.16;;;23.67;52.59
70728;BME280;58314;47.722;17.652;2022-10-16T12:59:09;101042.94;;;23.30;54.70
70728;BME280;58314;47.722;17.652;2022-10-16T13:12:41;101046.72;;;22.78;57.22
70728;BME280;58314;47.722;17.652;2022-10-16T13:15:58;101046.09;;;22.74;56.33
70728;BME280;58314;47.722;17.652;2022-10-16T13:19:29;101046.09;;;22.74;55.89
70728;BME280;58314;47.722;17.652;2022-10-16T13:29:13;101055.38;;;22.60;56.54
70728;BME280;58314;47.722;17.652;2022-10-16T13:32:15;101055.53;;;22.37;56.60
70728;BME280;58314;47.722;17.652;2022-10-16T13:35:26;101055.81;;;22.34;56.76
70728;BME280;58314;47.722;17.652;2022-10-16T13:38:30;101058.06;;;22.29;57.25
70728;BME280;58314;47.722;17.652;2022-10-16T13:41:35;101051.50;;;22.11;57.06
70728;BME280;58314;47.722;17.652;2022-10-16T13:44:44;101060.44;;;22.11;57.73
70728;BME280;58314;47.722;17.652;2022-10-16T13:47:47;101076.09;;;22.17;57.98
70728;BME280;58314;47.722;17.652;2022-10-16T13:51:17;101068.81;;;21.97;57.67
70728;BME280;58314;47.722;17.652;2022-10-16T13:54:22;101078.72;;;21.75;58.26
70728;BME280;58314;47.722;17.652;2022-10-16T13:57:27;101075.25;;;21.85;58.36
70728;BME280;58314;47.722;17.652;2022-10-16T14:00:28;101080.53;;;21.75;57.73
70728;BME280;58314;47.722;17.652;2022-10-16T14:03:33;101084.72;;;21.68;57.95
70728;BME280;58314;47.722;17.652;2022-10-16T14:06:36;101085.06;;;21.74;58.23
70728;BME280;58314;47.722;17.652;2022-10-16T14:09:41;101088.00;;;21.71;58.71
70728;BME280;58314;47.722;17.652;2022-10-16T14:12:41;101088.06;;;21.60;58.78
70728;BME280;58314;47.722;17.652;2022-10-16T14:15:47;101094.16;;;21.51;59.28
70728;BME280;58314;47.722;17.652;2022-10-16T14:21:58;101097.47;;;21.32;59.43
70728;BME280;58314;47.722;17.652;2022-10-16T14:25:01;101101.75;;;21.23;59.60
70728;BME280;58314;47.722;17.652;2022-10-16T14:28:14;101096.38;;;21.23;59.82
70728;BME280;58314;47.722;17.652;2022-10-16T14:34:26;101098.09;;;21.13;59.75
70728;BME280;58314;47.722;17.652;2022-10-16T14:37:29;101102.50;;;21.02;60.66
70728;BME280;58314;47.722;17.652;2022-10-16T14:40:31;101104.59;;;20.99;60.64
70728;BME280;58314;47.722;17.652;2022-10-16T14:43:40;101110.69;;;21.01;61.08
70728;BME280;58314;47.722;17.652;2022-10-16T14:46:42;101117.91;;;20.89;61.37
70728;BME280;58314;47.722;17.652;2022-10-16T14:49:44;101111.06;;;20.85;60.75
70728;BME280;58314;47.722;17.652;2022-10-16T14:52:45;101114.22;;;20.79;60.75
70728;BME280;58314;47.722;17.652;2022-10-16T14:55:45;101115.56;;;20.73;61.93
70728;BME280;58314;47.722;17.652;2022-10-16T14:58:50;101112.47;;;20.66;62.04
70728;BME280;58314;47.722;17.652;2022-10-16T15:01:51;101110.75;;;20.65;62.11
70728;BME280;58314;47.722;17.652;2022-10-16T15:04:52;101112.06;;;20.60;61.91
70728;BME280;58314;47.722;17.652;2022-10-16T15:07:55;101116.09;;;20.54;62.73
70728;BME280;58314;47.722;17.652;2022-10-16T15:10:56;101124.97;;;20.43;62.48
70728;BME280;58314;47.722;17.652;2022-10-16T15:13:57;101121.69;;;20.51;62.39
70728;BME280;58314;47.722;17.652;2022-10-16T15:16:58;101119.13;;;20.49;62.87
70728;BME280;58314;47.722;17.652;2022-10-16T15:19:58;101133.38;;;20.39;62.89
70728;BME280;58314;47.722;17.652;2022-10-16T15:23:04;101134.09;;;20.29;63.89
70728;BME280;58314;47.722;17.652;2022-10-16T15:26:07;101140.88;;;20.22;64.53
70728;BME280;58314;47.722;17.652;2022-10-16T15:29:09;101150.16;;;20.18;63.09
70728;BME280;58314;47.722;17.652;2022-10-16T15:32:10;101142.16;;;20.05;64.14
70728;BME280;58314;47.722;17.652;2022-10-16T15:35:11;101134.38;;;19.89;64.42
70728;BME280;58314;47.722;17.652;2022-10-16T15:38:12;101140.19;;;19.83;64.57
70728;BME280;58314;47.722;17.652;2022-10-16T15:41:14;101146.31;;;19.72;66.02
70728;BME280;58314;47.722;17.652;2022-10-16T15:44:14;101151.19;;;19.54;66.35
70728;BME280;58314;47.722;17.652;2022-10-16T15:47:15;101149.81;;;19.49;65.78
70728;BME280;58314;47.722;17.652;2022-10-16T15:50:18;101152.41;;;19.37;66.82
70728;BME280;58314;47.722;17.652;2022-10-16T15:53:18;101155.72;;;19.28;66.44
70728;BME280;58314;47.722;17.652;2022-10-16T15:56:19;101160.59;;;19.10;67.92
70728;BME280;58314;47.722;17.652;2022-10-16T15:59:20;101166.59;;;19.01;68.13
70728;BME280;58314;47.722;17.652;2022-10-16T16:02:21;101167.00;;;18.95;67.88
70728;BME280;58314;47.722;17.652;2022-10-16T16:05:22;101166.91;;;18.84;68.90
70728;BME280;58314;47.722;17.652;2022-10-16T16:08:23;101172.44;;;18.80;68.62
70728;BME280;58314;47.722;17.652;2022-10-16T16:11:24;101174.47;;;18.77;68.60
70728;BME280;58314;47.722;17.652;2022-10-16T16:14:24;101183.13;;;18.68;69.20
70728;BME280;58314;47.722;17.652;2022-10-16T16:17:26;101188.38;;;18.56;69.76
70728;BME280;58314;47.722;17.652;2022-10-16T16:20:27;101196.06;;;18.48;70.29
70728;BME280;58314;47.722;17.652;2022-10-16T16:23:28;101194.66;;;18.42;70.53
70728;BME280;58314;47.722;17.652;2022-10-16T16:26:29;101205.53;;;18.27;71.69
70728;BME280;58314;47.722;17.652;2022-10-16T16:29:35;101212.13;;;18.21;71.60
70728;BME280;58314;47.722;17.652;2022-10-16T16:32:36;101215.84;;;18.05;73.05
70728;BME280;58314;47.722;17.652;2022-10-16T16:35:36;101221.66;;;17.98;73.92
70728;BME280;58314;47.722;17.652;2022-10-16T16:38:37;101228.38;;;17.91;74.82
70728;BME280;58314;47.722;17.652;2022-10-16T16:41:38;101234.19;;;17.83;75.49
70728;BME280;58314;47.722;17.652;2022-10-16T16:44:38;101231.91;;;17.77;76.22
70728;BME280;58314;47.722;17.652;2022-10-16T16:47:39;101234.66;;;17.75;75.68
70728;BME280;58314;47.722;17.652;2022-10-16T16:50:40;101235.25;;;17.66;75.79
70728;BME280;58314;47.722;17.652;2022-10-16T16:53:45;101238.03;;;17.64;75.40
70728;BME280;58314;47.722;17.652;2022-10-16T16:56:46;101232.09;;;17.59;75.64
70728;BME280;58314;47.722;17.652;2022-10-16T16:59:50;101247.31;;;17.59;76.40
70728;BME280;58314;47.722;17.652;2022-10-16T17:02:51;101259.13;;;17.55;76.13
70728;BME280;58314;47.722;17.652;2022-10-16T17:05:59;101262.47;;;17.44;75.86
70728;BME280;58314;47.722;17.652;2022-10-16T17:09:02;101264.09;;;17.32;76.63
70728;BME280;58314;47.722;17.652;2022-10-16T17:12:03;101269.34;;;17.34;76.83